Time;durP1;ratioP1;P1;durP2;ratioP2;P2;SDS_P1;SDS_P2;PMS_P1;PMS_P2;Temp;Humidity;BMP_temperature;BMP_pressure;BME280_temperature;BME280_humidity;BME280_pressure;Samples;Min_cycle;Max_cycle;Signal;HPM_P1;HPM_P2
2022/01/30 00:00:25;;;;;;;21.30;5.03;;;6.80;87.80;;;;;;6114436;23;20020;-75
2022/01/30 00:02:53;;;;;;;20.92;4.45;;;6.80;87.90;;;;;;6162933;23;20017;-77
2022/01/30 00:05:19;;;;;;;26.05;5.53;;;6.80;87.70;;;;;;6160670;23;20175;-75
2022/01/30 00:07:45;;;;;;;25.45;4.93;;;6.80;87.60;;;;;;6160522;23;20519;-74
2022/01/30 00:10:13;;;;;;;32.45;5.45;;;6.80;87.60;;;;;;6135760;23;20017;-74
2022/01/30 00:12:48;;;;;;;21.25;5.75;;;6.80;87.50;;;;;;6186033;23;20097;-83
2022/01/30 00:15:16;;;;;;;26.30;5.22;;;6.70;87.40;;;;;;6163630;23;20024;-74
2022/01/30 00:17:54;;;;;;;22.55;5.68;;;6.70;87.20;;;;;;6186542;23;20009;-75
2022/01/30 00:20:24;;;;;;;31.00;5.15;;;6.70;87.20;;;;;;6164230;23;20025;-74
2022/01/30 00:23:09;;;;;;;24.08;4.82;;;6.70;87.20;;;;;;6186940;23;20024;-75
2022/01/30 00:25:46;;;;;;;22.65;5.30;;;6.70;87.20;;;;;;6165485;23;20015;-73
2022/01/30 00:28:14;;;;;;;32.35;6.50;;;6.60;87.30;;;;;;6163772;23;20017;-75
2022/01/30 00:30:40;;;;;;;23.35;4.95;;;6.60;87.40;;;;;;6161791;23;20020;-82
2022/01/30 00:33:05;;;;;;;22.85;4.50;;;6.60;87.40;;;;;;6187811;23;20021;-75
2022/01/30 00:35:35;;;;;;;29.73;5.90;;;6.60;87.60;;;;;;6161960;23;20521;-74
2022/01/30 00:38:04;;;;;;;23.77;5.93;;;6.60;87.60;;;;;;6186068;23;20049;-74
2022/01/30 00:40:30;;;;;;;27.83;6.18;;;6.60;87.60;;;;;;6161882;23;20024;-73
2022/01/30 00:42:56;;;;;;;23.73;5.55;;;6.60;87.70;;;;;;6112128;23;20072;-75
2022/01/30 00:45:21;;;;;;;28.92;5.45;;;6.60;87.70;;;;;;6161830;23;20020;-73
2022/01/30 00:47:47;;;;;;;33.55;6.03;;;6.50;87.80;;;;;;6161828;23;20028;-73
2022/01/30 00:50:13;;;;;;;37.97;6.00;;;6.50;87.90;;;;;;6161609;23;20503;-73
2022/01/30 00:52:38;;;;;;;24.67;4.90;;;6.50;87.90;;;;;;6161727;23;20343;-73
2022/01/30 00:55:05;;;;;;;28.67;6.60;;;6.50;88.00;;;;;;6137005;23;20299;-73
2022/01/30 00:57:30;;;;;;;35.75;7.13;;;6.50;88.10;;;;;;6161060;23;20013;-73
2022/01/30 00:59:56;;;;;;;24.13;5.90;;;6.40;88.10;;;;;;6136384;23;20055;-74
2022/01/30 01:02:21;;;;;;;32.22;5.57;;;6.40;88.20;;;;;;6137088;23;20032;-74
2022/01/30 01:04:47;;;;;;;28.13;5.88;;;6.40;88.30;;;;;;6136560;23;20047;-76
2022/01/30 01:07:23;;;;;;;35.20;6.35;;;6.40;88.30;;;;;;6188265;23;20306;-74
2022/01/30 01:10:55;;;;;;;33.60;7.45;;;6.40;88.30;;;;;;6113832;23;20027;-76
2022/01/30 01:23:35;;;;;;;21.75;4.93;;;6.30;88.40;;;;;;6160561;23;20022;-74
2022/01/30 01:26:00;;;;;;;22.70;4.70;;;6.30;88.50;;;;;;6137475;23;20025;-73
2022/01/30 01:28:26;;;;;;;23.25;5.32;;;6.30;88.30;;;;;;6186797;23;20067;-74
2022/01/30 01:30:53;;;;;;;27.27;5.13;;;6.30;88.30;;;;;;6160797;23;20139;-74
2022/01/30 01:33:19;;;;;;;15.57;4.07;;;6.30;88.10;;;;;;6187349;23;20021;-74
2022/01/30 01:35:45;;;;;;;22.88;4.10;;;6.30;88.00;;;;;;6136720;23;20109;-74
2022/01/30 01:38:12;;;;;;;25.90;5.18;;;6.30;87.70;;;;;;6187289;23;20048;-73
2022/01/30 01:40:52;;;;;;;20.70;4.07;;;6.30;87.50;;;;;;6161934;23;20024;-74
2022/01/30 01:43:18;;;;;;;23.73;4.30;;;6.30;87.20;;;;;;6140774;23;20040;-74
2022/01/30 01:45:46;;;;;;;24.63;5.25;;;6.30;87.00;;;;;;6162386;23;20024;-73
2022/01/30 01:48:14;;;;;;;17.40;3.80;;;6.20;86.80;;;;;;6137167;23;20082;-75
2022/01/30 01:50:43;;;;;;;18.98;5.43;;;6.20;86.50;;;;;;6163189;23;20017;-73
2022/01/30 01:53:13;;;;;;;20.45;3.60;;;6.20;86.50;;;;;;6162262;23;20084;-75
2022/01/30 01:55:39;;;;;;;21.77;4.88;;;6.20;86.50;;;;;;6188167;23;20017;-73
2022/01/30 01:58:05;;;;;;;16.80;3.65;;;6.10;86.50;;;;;;6187615;23;20024;-73
2022/01/30 02:00:31;;;;;;;20.77;3.63;;;6.10;86.50;;;;;;6189033;23;20100;-73
2022/01/30 02:02:57;;;;;;;22.45;4.28;;;6.10;86.80;;;;;;6137326;23;20028;-74
2022/01/30 02:05:25;;;;;;;19.45;4.00;;;6.10;86.80;;;;;;6161717;23;20017;-75
2022/01/30 02:10:39;;;;;;;22.80;4.88;;;6.10;87.10;;;;;;6162319;23;20021;-75
2022/01/30 02:13:38;;;;;;;24.15;4.05;;;6.10;87.30;;;;;;6186396;23;20017;-74
2022/01/30 02:24:23;;;;;;;23.25;5.00;;;6.00;87.50;;;;;;6166087;23;20021;-74
2022/01/30 02:26:49;;;;;;;26.27;5.20;;;6.10;87.70;;;;;;6139706;23;20096;-74
2022/01/30 02:29:15;;;;;;;29.85;5.88;;;6.10;87.70;;;;;;6136674;23;20440;-73
2022/01/30 02:31:41;;;;;;;18.88;5.30;;;6.00;87.70;;;;;;6189070;23;20036;-74
2022/01/30 02:34:07;;;;;;;32.75;5.40;;;6.10;87.80;;;;;;6162397;23;20105;-75
2022/01/30 02:36:44;;;;;;;21.80;5.63;;;6.10;87.70;;;;;;6188458;23;20017;-73
2022/01/30 02:39:10;;;;;;;28.60;5.28;;;6.10;87.70;;;;;;6164256;23;20383;-75
2022/01/30 02:41:38;;;;;;;25.75;5.22;;;6.10;87.80;;;;;;6188432;23;20021;-74
2022/01/30 02:44:19;;;;;;;23.88;5.18;;;6.10;88.00;;;;;;6161956;23;20025;-76
2022/01/30 02:46:50;;;;;;;26.42;5.50;;;6.10;87.90;;;;;;6141069;23;20151;-75
2022/01/30 02:51:53;;;;;;;25.90;5.32;;;6.10;88.00;;;;;;6162090;23;20053;-73
2022/01/30 02:54:18;;;;;;;26.77;5.55;;;6.10;88.00;;;;;;6139086;23;20012;-76
2022/01/30 02:56:44;;;;;;;33.22;5.90;;;6.10;87.90;;;;;;6188555;23;20478;-73
2022/01/30 02:59:10;;;;;;;29.17;5.20;;;6.10;88.00;;;;;;6136818;23;20432;-74
2022/01/30 03:01:36;;;;;;;23.00;5.65;;;6.10;87.90;;;;;;6137348;23;20020;-74
2022/01/30 03:04:02;;;;;;;24.30;4.82;;;6.10;87.90;;;;;;6161165;23;20027;-73
2022/01/30 03:06:28;;;;;;;25.48;5.50;;;6.10;87.90;;;;;;6160727;23;20056;-73
2022/01/30 03:08:54;;;;;;;22.73;4.90;;;6.10;87.80;;;;;;6186289;23;20471;-79
2022/01/30 03:11:22;;;;;;;23.45;5.18;;;6.10;87.80;;;;;;6135876;23;20475;-74
2022/01/30 03:13:48;;;;;;;21.15;5.30;;;6.10;87.80;;;;;;6161863;23;20045;-73
2022/01/30 03:16:14;;;;;;;28.95;6.20;;;6.10;87.90;;;;;;6161015;23;20017;-74
2022/01/30 03:18:40;;;;;;;19.65;4.53;;;6.10;87.80;;;;;;6161353;23;20017;-74
2022/01/30 03:21:06;;;;;;;18.85;4.82;;;6.10;87.80;;;;;;6112972;23;20017;-81
2022/01/30 03:23:36;;;;;;;24.73;4.85;;;6.10;87.80;;;;;;6161767;23;20017;-74
2022/01/30 03:26:02;;;;;;;23.77;4.68;;;6.10;87.80;;;;;;6161286;23;20063;-73
2022/01/30 03:28:28;;;;;;;25.67;4.95;;;6.20;87.90;;;;;;6161379;23;20009;-73
2022/01/30 03:30:58;;;;;;;28.52;6.50;;;6.20;87.90;;;;;;6161962;23;20467;-73
2022/01/30 03:33:24;;;;;;;29.15;5.35;;;6.20;87.90;;;;;;6186595;23;20343;-73
2022/01/30 03:35:50;;;;;;;33.15;7.43;;;6.20;87.90;;;;;;6137682;23;20056;-74
2022/01/30 03:38:16;;;;;;;29.30;5.28;;;6.20;88.00;;;;;;6136845;23;20056;-74
2022/01/30 03:40:43;;;;;;;30.88;6.95;;;6.20;88.00;;;;;;6137307;23;20016;-74
2022/01/30 03:43:09;;;;;;;37.45;6.15;;;6.20;88.10;;;;;;6137379;23;20043;-80
2022/01/30 03:45:34;;;;;;;31.13;6.35;;;6.30;88.40;;;;;;6112706;23;20025;-72
2022/01/30 03:48:00;;;;;;;34.15;7.78;;;6.20;88.40;;;;;;6187706;23;20443;-74
2022/01/30 03:50:26;;;;;;;27.13;6.97;;;6.30;88.50;;;;;;6161719;23;20021;-77
2022/01/30 03:52:52;;;;;;;40.20;6.07;;;6.20;88.60;;;;;;6161939;23;20352;-74
2022/01/30 03:55:17;;;;;;;27.52;5.63;;;6.20;88.70;;;;;;6160883;23;20096;-74
2022/01/30 03:57:43;;;;;;;34.83;7.22;;;6.20;88.80;;;;;;6160738;23;20017;-74
2022/01/30 04:00:09;;;;;;;38.70;8.10;;;6.20;88.80;;;;;;6160996;23;20096;-73
2022/01/30 04:02:35;;;;;;;27.17;6.03;;;6.20;89.00;;;;;;6160871;23;20028;-74
2022/01/30 04:05:02;;;;;;;32.45;7.22;;;6.20;89.00;;;;;;6187186;23;20384;-75
2022/01/30 04:07:27;;;;;;;29.25;6.88;;;6.20;89.00;;;;;;6186726;23;20021;-74
2022/01/30 04:09:53;;;;;;;42.50;9.30;;;6.20;89.00;;;;;;6136910;23;20452;-73
2022/01/30 04:12:19;;;;;;;32.10;7.15;;;6.20;89.10;;;;;;6135772;23;20017;-75
2022/01/30 04:14:45;;;;;;;42.22;7.88;;;6.20;89.10;;;;;;6160619;23;20029;-74
2022/01/30 04:17:13;;;;;;;34.85;7.35;;;6.20;89.10;;;;;;6159828;23;20017;-74
2022/01/30 04:19:39;;;;;;;32.90;6.82;;;6.20;89.10;;;;;;6159824;23;20095;-74
2022/01/30 04:22:04;;;;;;;38.33;9.48;;;6.20;89.20;;;;;;6187787;23;20049;-73
2022/01/30 04:24:30;;;;;;;35.85;6.93;;;6.20;89.20;;;;;;6136197;23;20436;-73
2022/01/30 04:26:56;;;;;;;42.80;8.77;;;6.20;89.20;;;;;;6185646;23;20193;-74
2022/01/30 04:29:22;;;;;;;35.33;7.25;;;6.20;89.30;;;;;;6160444;23;20020;-75
2022/01/30 04:31:49;;;;;;;40.72;8.05;;;6.20;89.40;;;;;;6160767;23;20017;-73
2022/01/30 04:34:15;;;;;;;36.92;8.90;;;6.20;89.50;;;;;;6185456;23;20056;-74
2022/01/30 04:36:55;;;;;;;38.33;6.78;;;6.20;89.50;;;;;;6159890;23;20023;-74
2022/01/30 04:39:40;;;;;;;31.70;7.10;;;6.20;89.50;;;;;;6138190;23;20076;-75
2022/01/30 05:01:24;;;;;;;36.30;8.45;;;6.10;89.30;;;;;;6160592;23;20025;-74
2022/01/30 05:06:31;;;;;;;44.58;10.68;;;6.10;88.90;;;;;;6136055;23;20134;-79
2022/01/30 05:08:57;;;;;;;42.63;8.82;;;6.10;88.90;;;;;;6135905;23;20059;-74
2022/01/30 05:11:23;;;;;;;43.17;11.73;;;6.10;88.70;;;;;;6186717;23;20021;-82
2022/01/30 05:13:50;;;;;;;42.10;9.80;;;6.10;88.70;;;;;;6160404;23;20065;-73
2022/01/30 05:16:17;;;;;;;38.03;8.68;;;6.10;88.60;;;;;;6135839;23;20021;-74
2022/01/30 05:18:43;;;;;;;47.05;9.02;;;6.10;88.50;;;;;;6135539;23;20104;-74
2022/01/30 05:21:09;;;;;;;39.60;9.43;;;6.10;88.40;;;;;;6160748;23;20056;-74
2022/01/30 05:23:35;;;;;;;47.47;10.00;;;6.10;88.10;;;;;;6160776;23;20025;-73
2022/01/30 05:26:05;;;;;;;45.63;9.73;;;6.10;88.00;;;;;;6160343;23;20021;-74
2022/01/30 05:28:31;;;;;;;46.22;9.93;;;6.10;87.70;;;;;;6161378;23;20060;-73
2022/01/30 05:30:56;;;;;;;55.60;10.98;;;6.10;87.50;;;;;;6161311;23;20020;-74
2022/01/30 05:33:22;;;;;;;42.55;9.07;;;6.00;87.20;;;;;;6187170;23;20049;-74
2022/01/30 05:35:48;;;;;;;43.85;10.02;;;6.00;87.10;;;;;;6135791;23;20025;-73
2022/01/30 05:38:14;;;;;;;41.08;8.40;;;6.00;87.00;;;;;;6185560;23;20025;-74
2022/01/30 05:40:40;;;;;;;39.78;9.82;;;6.00;86.90;;;;;;6186759;23;20017;-74
2022/01/30 05:43:06;;;;;;;46.05;9.38;;;6.00;86.70;;;;;;6136131;23;20013;-74
2022/01/30 05:48:09;;;;;;;47.47;10.23;;;6.00;86.50;;;;;;6161411;23;20025;-74
2022/01/30 05:50:35;;;;;;;43.10;10.02;;;6.00;86.30;;;;;;6185120;23;20435;-75
2022/01/30 05:53:01;;;;;;;45.58;10.20;;;6.00;86.30;;;;;;6160244;23;20095;-74
2022/01/30 05:55:27;;;;;;;41.90;9.40;;;6.00;86.10;;;;;;6160708;23;20024;-73
2022/01/30 05:57:52;;;;;;;45.72;9.00;;;5.90;85.90;;;;;;6160062;23;20013;-73
2022/01/30 06:00:18;;;;;;;44.03;9.50;;;5.90;85.80;;;;;;6160236;23;20021;-73
2022/01/30 06:02:44;;;;;;;43.17;8.52;;;5.90;85.70;;;;;;6160006;23;20394;-73
2022/01/30 06:05:10;;;;;;;46.88;8.40;;;5.90;85.70;;;;;;6160862;23;20448;-73
2022/01/30 06:07:45;;;;;;;52.58;9.93;;;5.90;85.70;;;;;;6135478;23;20013;-76
2022/01/30 06:10:11;;;;;;;49.72;12.02;;;5.90;85.60;;;;;;6162481;23;20059;-73
2022/01/30 06:12:37;;;;;;;43.95;9.95;;;5.90;85.50;;;;;;6135339;23;20021;-73
2022/01/30 06:15:02;;;;;;;43.88;10.98;;;5.90;85.60;;;;;;6160691;23;20500;-73
2022/01/30 06:17:28;;;;;;;47.80;9.18;;;5.80;85.50;;;;;;6135680;23;20092;-73
2022/01/30 06:19:54;;;;;;;50.13;9.07;;;5.80;85.40;;;;;;6135206;23;20013;-73
2022/01/30 06:22:20;;;;;;;49.92;9.98;;;5.80;85.50;;;;;;6160643;23;20013;-74
2022/01/30 06:24:45;;;;;;;51.22;9.38;;;5.80;85.40;;;;;;6159852;23;20021;-79
2022/01/30 06:27:11;;;;;;;47.92;10.82;;;5.80;85.40;;;;;;6161471;23;20096;-74
2022/01/30 06:29:36;;;;;;;48.15;10.80;;;5.80;85.40;;;;;;6161864;23;20052;-75
2022/01/30 06:32:03;;;;;;;47.97;9.23;;;5.80;85.30;;;;;;6162064;23;20021;-74
2022/01/30 06:34:28;;;;;;;40.15;9.70;;;5.70;85.00;;;;;;6136977;23;20052;-73
2022/01/30 06:36:55;;;;;;;42.35;9.77;;;5.70;85.00;;;;;;6161553;23;20029;-73
2022/01/30 06:39:21;;;;;;;43.58;8.95;;;5.70;84.80;;;;;;6161091;23;20017;-74
2022/01/30 06:41:46;;;;;;;55.45;9.80;;;5.70;84.80;;;;;;6161476;23;20017;-75
2022/01/30 06:44:12;;;;;;;43.05;9.65;;;5.70;84.70;;;;;;6137799;23;20052;-74
2022/01/30 06:46:38;;;;;;;63.50;12.52;;;5.70;85.40;;;;;;6187464;23;20031;-80
2022/01/30 06:49:04;;;;;;;45.15;9.80;;;5.70;84.60;;;;;;6163092;23;20083;-73
2022/01/30 06:51:30;;;;;;;49.95;11.18;;;5.70;84.70;;;;;;6163163;23;20016;-73
2022/01/30 06:53:55;;;;;;;55.97;10.65;;;5.70;84.70;;;;;;6163113;23;20382;-73
2022/01/30 06:56:21;;;;;;;49.38;11.13;;;5.70;84.80;;;;;;6163065;23;20024;-72
2022/01/30 06:58:47;;;;;;;45.00;10.52;;;5.70;84.70;;;;;;6112966;23;20024;-74
2022/01/30 07:01:12;;;;;;;58.65;11.43;;;5.70;84.70;;;;;;6162107;23;20017;-73
2022/01/30 07:03:38;;;;;;;51.00;11.23;;;5.70;84.70;;;;;;6137479;23;20432;-76
2022/01/30 07:06:04;;;;;;;50.03;10.48;;;5.70;84.70;;;;;;6132373;23;20053;-73
2022/01/30 07:08:30;;;;;;;47.35;11.15;;;5.70;84.80;;;;;;6132467;23;20475;-72
2022/01/30 07:10:55;;;;;;;47.00;10.23;;;5.70;84.70;;;;;;6107923;23;20148;-75
2022/01/30 07:13:21;;;;;;;49.47;11.27;;;5.70;84.60;;;;;;6157637;23;20028;-73
2022/01/30 07:15:46;;;;;;;52.47;11.50;;;5.70;84.70;;;;;;6157725;23;20077;-73
2022/01/30 07:18:12;;;;;;;48.08;11.43;;;5.70;84.60;;;;;;6159029;23;20013;-73
2022/01/30 07:20:38;;;;;;;49.63;10.68;;;5.80;84.60;;;;;;6157525;23;20100;-73
2022/01/30 07:23:04;;;;;;;45.67;10.68;;;5.80;84.40;;;;;;6132600;23;20424;-73
2022/01/30 07:25:29;;;;;;;49.95;8.60;;;5.80;84.50;;;;;;6107673;23;20111;-73
2022/01/30 07:27:55;;;;;;;48.17;10.00;;;5.80;84.40;;;;;;6131586;23;20020;-73
2022/01/30 07:30:21;;;;;;;50.28;10.13;;;5.80;84.40;;;;;;6107325;23;20017;-73
2022/01/30 07:32:46;;;;;;;43.25;11.43;;;5.90;84.60;;;;;;6155149;23;20080;-73
2022/01/30 07:35:12;;;;;;;54.75;10.00;;;5.90;84.50;;;;;;6156209;23;20076;-75
2022/01/30 07:37:41;;;;;;;53.25;12.77;;;5.80;84.50;;;;;;6157208;23;20017;-74
2022/01/30 07:40:07;;;;;;;53.08;11.52;;;5.90;84.50;;;;;;6108202;23;20057;-73
2022/01/30 07:42:33;;;;;;;49.50;11.85;;;5.90;84.60;;;;;;6132667;23;20013;-73
2022/01/30 07:44:59;;;;;;;57.17;10.50;;;6.00;84.60;;;;;;6156188;23;20018;-73
2022/01/30 07:47:25;;;;;;;47.17;10.15;;;6.00;84.50;;;;;;6156411;23;20452;-74
2022/01/30 07:49:53;;;;;;;52.63;9.90;;;6.00;84.60;;;;;;6132249;23;20092;-74
2022/01/30 07:52:22;;;;;;;54.72;10.60;;;6.00;84.50;;;;;;6131673;23;20021;-73
2022/01/30 07:54:48;;;;;;;51.25;11.05;;;6.00;84.50;;;;;;6132084;23;20024;-78
2022/01/30 07:57:14;;;;;;;59.70;11.93;;;6.00;84.40;;;;;;6156671;23;20021;-73
2022/01/30 07:59:41;;;;;;;51.53;10.43;;;6.00;84.20;;;;;;6107138;23;20017;-72
2022/01/30 08:02:06;;;;;;;49.40;11.25;;;6.00;84.20;;;;;;6130453;23;20022;-72
2022/01/30 08:04:32;;;;;;;48.03;9.75;;;6.10;83.80;;;;;;6130990;23;20072;-72
2022/01/30 08:06:59;;;;;;;45.33;9.98;;;6.10;83.60;;;;;;6173356;23;20159;-76
2022/01/30 08:09:25;;;;;;;59.42;12.02;;;6.10;83.60;;;;;;6162898;23;20220;-73
2022/01/30 08:11:51;;;;;;;49.88;12.93;;;6.10;83.40;;;;;;6160712;23;20025;-80
2022/01/30 08:14:16;;;;;;;44.15;10.88;;;6.10;83.40;;;;;;6185615;23;20541;-73
2022/01/30 08:16:44;;;;;;;50.20;10.15;;;6.10;83.00;;;;;;6160552;23;20013;-74
2022/01/30 08:19:10;;;;;;;52.85;10.38;;;6.20;82.90;;;;;;6161414;23;20172;-76
2022/01/30 08:21:36;;;;;;;48.63;10.95;;;6.20;82.80;;;;;;6161233;23;20506;-74
2022/01/30 08:24:02;;;;;;;42.85;10.43;;;6.20;82.50;;;;;;6160836;23;20568;-73
2022/01/30 08:26:30;;;;;;;58.65;11.63;;;6.20;82.20;;;;;;6135172;23;20067;-74
2022/01/30 08:28:56;;;;;;;50.08;11.18;;;6.20;82.10;;;;;;6160893;23;20017;-74
2022/01/30 08:31:22;;;;;;;56.10;12.35;;;6.30;82.00;;;;;;6135749;23;20048;-74
2022/01/30 08:33:47;;;;;;;58.10;12.18;;;6.30;81.90;;;;;;6136869;23;20452;-75
2022/01/30 08:36:13;;;;;;;56.33;11.07;;;6.30;81.70;;;;;;6111591;23;20078;-75
2022/01/30 08:38:39;;;;;;;46.42;12.50;;;6.30;81.60;;;;;;6161501;23;20031;-74
2022/01/30 08:41:04;;;;;;;60.85;11.68;;;6.30;81.40;;;;;;6161657;23;20056;-73
2022/01/30 08:43:30;;;;;;;57.90;12.65;;;6.30;81.40;;;;;;6136642;23;20028;-74
2022/01/30 08:45:56;;;;;;;55.00;11.07;;;6.40;81.60;;;;;;6137523;23;20017;-80
2022/01/30 08:48:22;;;;;;;47.17;11.73;;;6.40;81.50;;;;;;6162048;23;20024;-73
2022/01/30 08:50:47;;;;;;;51.90;11.00;;;6.50;81.40;;;;;;6111952;23;20391;-73
2022/01/30 08:53:14;;;;;;;55.35;10.80;;;6.50;81.40;;;;;;6160852;23;20028;-74
2022/01/30 08:55:40;;;;;;;53.80;12.10;;;6.60;81.40;;;;;;6136668;23;20502;-75
2022/01/30 08:58:09;;;;;;;54.55;12.18;;;6.60;81.30;;;;;;6187133;23;20017;-77
2022/01/30 09:00:35;;;;;;;61.13;11.38;;;6.60;81.10;;;;;;6137650;23;20017;-72
2022/01/30 09:03:03;;;;;;;51.65;12.30;;;6.60;80.90;;;;;;6159533;23;20021;-74
2022/01/30 09:05:30;;;;;;;55.40;11.02;;;6.60;80.70;;;;;;6136244;23;20052;-73
2022/01/30 09:07:59;;;;;;;54.72;12.18;;;6.60;80.60;;;;;;6160677;23;20013;-74
2022/01/30 09:10:25;;;;;;;52.33;11.27;;;6.70;80.70;;;;;;6160573;23;20027;-73
2022/01/30 09:12:50;;;;;;;43.05;12.27;;;6.70;80.50;;;;;;6134540;23;20052;-73
2022/01/30 09:15:17;;;;;;;50.58;10.75;;;6.70;80.30;;;;;;6184738;23;20017;-74
2022/01/30 09:17:43;;;;;;;40.47;9.63;;;6.80;80.00;;;;;;6161691;23;20017;-72
2022/01/30 09:20:09;;;;;;;53.00;9.60;;;6.80;79.50;;;;;;6161120;23;20021;-73
2022/01/30 09:22:35;;;;;;;55.17;12.57;;;6.80;78.90;;;;;;6136954;23;20060;-73
2022/01/30 09:25:01;;;;;;;51.15;10.80;;;6.90;78.70;;;;;;6112374;23;20024;-79
2022/01/30 09:27:27;;;;;;;47.38;9.88;;;6.90;78.70;;;;;;6160909;23;20013;-72
2022/01/30 09:29:53;;;;;;;65.18;11.52;;;7.00;78.30;;;;;;6160978;23;20396;-73
2022/01/30 09:32:19;;;;;;;44.20;10.45;;;7.10;78.20;;;;;;6136007;23;20072;-73
2022/01/30 09:34:45;;;;;;;61.47;10.50;;;7.10;77.70;;;;;;6135636;23;20395;-73
2022/01/30 09:37:10;;;;;;;60.13;13.40;;;7.20;77.70;;;;;;6160487;23;20032;-73
2022/01/30 09:39:37;;;;;;;53.05;11.77;;;7.20;77.00;;;;;;6160988;23;20021;-73
2022/01/30 09:42:03;;;;;;;56.38;9.88;;;7.10;76.80;;;;;;6136187;23;20021;-80
2022/01/30 09:44:29;;;;;;;52.65;11.60;;;7.10;76.80;;;;;;6161218;23;20019;-74
2022/01/30 09:46:55;;;;;;;44.47;11.13;;;7.10;76.40;;;;;;6136144;23;20438;-74
2022/01/30 09:49:27;;;;;;;43.95;9.75;;;7.10;76.20;;;;;;6160677;23;20067;-73
2022/01/30 09:51:53;;;;;;;45.80;10.23;;;7.10;75.90;;;;;;6112601;23;20020;-73
2022/01/30 09:54:19;;;;;;;50.30;10.13;;;7.10;75.70;;;;;;6135567;23;20101;-73
2022/01/30 09:56:45;;;;;;;41.45;9.00;;;7.20;76.00;;;;;;6160177;23;20460;-75
2022/01/30 09:59:11;;;;;;;39.70;11.00;;;7.20;75.80;;;;;;6135081;23;20351;-72
2022/01/30 10:01:38;;;;;;;53.42;10.10;;;7.20;76.00;;;;;;6161460;23;20013;-72
2022/01/30 10:04:05;;;;;;;52.25;10.18;;;7.20;75.70;;;;;;6189128;23;20059;-73
2022/01/30 10:06:37;;;;;;;53.72;11.32;;;7.20;75.70;;;;;;6162169;23;20488;-72
2022/01/30 10:09:09;;;;;;;;;;;7.20;75.40;;;;;;6115214;23;20132;-71
2022/01/30 10:11:48;;;;;;;47.60;9.98;;;7.30;75.10;;;;;;6115415;23;19920;-75
2022/01/30 10:14:14;;;;;;;44.50;10.93;;;7.40;75.40;;;;;;6165075;23;20013;-74
2022/01/30 10:16:47;;;;;;;51.90;11.00;;;7.50;75.50;;;;;;6164104;23;20119;-74
2022/01/30 10:19:19;;;;;;;48.03;10.00;;;7.50;75.50;;;;;;6138928;23;20020;-75
2022/01/30 10:21:48;;;;;;;54.78;12.05;;;7.60;75.40;;;;;;6163091;23;20025;-72
2022/01/30 10:24:27;;;;;;;57.42;11.15;;;7.70;75.50;;;;;;6138370;23;20036;-73
2022/01/30 10:26:55;;;;;;;44.13;11.65;;;7.90;75.30;;;;;;6138038;23;20397;-73
2022/01/30 10:29:28;;;;;;;47.08;10.15;;;8.00;75.30;;;;;;6163978;23;20017;-75
2022/01/30 10:32:05;;;;;;;53.83;10.70;;;8.20;75.00;;;;;;6116571;23;20017;-75
2022/01/30 10:34:32;;;;;;;54.45;12.32;;;8.30;74.50;;;;;;6140657;23;20585;-76
2022/01/30 10:37:14;;;;;;;55.65;12.02;;;8.50;74.60;;;;;;6139477;23;20032;-74
2022/01/30 10:40:34;;;;;;;61.90;13.23;;;8.50;73.40;;;;;;6139969;23;20017;-74
2022/01/30 10:42:58;;;;;;;78.15;11.65;;;8.50;73.10;;;;;;6128523;23;20100;-74
2022/01/30 10:45:31;;;;;;;62.90;11.93;;;8.50;73.90;;;;;;6140245;23;20021;-75
2022/01/30 10:48:21;;;;;;;56.47;11.70;;;8.60;73.80;;;;;;6139979;23;20017;-74
2022/01/30 10:50:48;;;;;;;53.90;11.57;;;8.60;73.30;;;;;;6141526;23;20025;-78
2022/01/30 10:53:26;;;;;;;60.30;13.20;;;8.70;73.80;;;;;;6162609;23;20013;-80
2022/01/30 10:55:52;;;;;;;49.55;11.50;;;8.70;73.20;;;;;;6112654;23;20055;-76
2022/01/30 10:58:22;;;;;;;57.58;11.98;;;8.70;73.20;;;;;;6139603;23;20044;-79
2022/01/30 11:00:53;;;;;;;59.70;11.63;;;8.80;73.30;;;;;;6166685;23;20032;-79
2022/01/30 11:03:55;;;;;;;56.78;11.65;;;8.80;73.10;;;;;;6166971;23;20028;-78
2022/01/30 11:06:23;;;;;;;56.28;12.07;;;8.80;72.70;;;;;;6050419;23;20046;-81
2022/01/30 11:08:51;;;;;;;50.75;10.25;;;8.80;73.30;;;;;;6175025;23;20392;-76
2022/01/30 11:11:27;;;;;;;55.50;11.15;;;8.80;73.30;;;;;;6141697;23;20044;-80
2022/01/30 11:14:13;;;;;;;63.55;10.73;;;8.70;73.10;;;;;;6118090;23;20073;-79
2022/01/30 11:19:42;;;;;;;56.03;11.38;;;8.90;73.30;;;;;;6076167;23;20027;-77
2022/01/30 11:22:21;;;;;;;47.05;10.27;;;9.00;72.80;;;;;;6150847;23;20021;-77
2022/01/30 11:25:09;;;;;;;56.20;12.27;;;9.20;72.40;;;;;;6140644;23;20013;-77
2022/01/30 11:27:37;;;;;;;50.13;11.13;;;9.50;72.40;;;;;;6141098;23;20028;-78
2022/01/30 11:30:04;;;;;;;57.05;11.45;;;9.80;71.80;;;;;;6117218;23;20039;-77
2022/01/30 11:32:30;;;;;;;51.88;11.93;;;10.10;71.10;;;;;;6165092;23;20336;-74
2022/01/30 11:34:56;;;;;;;52.55;10.32;;;10.50;70.10;;;;;;6140141;23;20083;-76
2022/01/30 11:37:26;;;;;;;52.08;11.02;;;11.00;69.00;;;;;;6114981;23;20447;-79
2022/01/30 11:39:52;;;;;;;51.58;10.23;;;11.30;67.50;;;;;;6142000;23;20048;-80
2022/01/30 11:42:20;;;;;;;61.70;12.65;;;11.30;66.60;;;;;;6166008;23;20021;-77
2022/01/30 11:44:48;;;;;;;54.97;10.65;;;11.30;66.30;;;;;;6116340;23;20016;-77
2022/01/30 11:47:13;;;;;;;57.78;11.32;;;11.50;66.20;;;;;;6115933;23;20344;-77
2022/01/30 11:49:46;;;;;;;60.13;13.57;;;11.60;66.20;;;;;;6138948;23;20032;-78
2022/01/30 11:52:13;;;;;;;51.75;10.82;;;11.70;65.60;;;;;;6163722;23;20099;-79
2022/01/30 11:54:47;;;;;;;52.67;12.15;;;12.10;65.30;;;;;;6164235;23;20048;-79
2022/01/30 11:57:37;;;;;;;47.42;10.98;;;12.60;63.80;;;;;;6163392;23;20017;-77
2022/01/30 12:00:05;;;;;;;56.03;10.65;;;13.10;62.90;;;;;;6129167;23;20095;-75
2022/01/30 12:02:33;;;;;;;44.45;9.40;;;13.30;62.20;;;;;;6139621;23;20367;-79
2022/01/30 12:04:59;;;;;;;51.50;11.70;;;13.30;61.50;;;;;;6141023;23;20420;-84
2022/01/30 12:07:44;;;;;;;45.13;10.68;;;13.10;61.50;;;;;;6140541;23;20021;-82
2022/01/30 12:10:16;;;;;;;49.25;9.43;;;12.90;61.10;;;;;;6166658;23;20064;-84
2022/01/30 12:12:56;;;;;;;50.78;11.57;;;12.50;61.40;;;;;;6139222;23;20027;-81
2022/01/30 12:15:39;;;;;;;51.38;11.43;;;12.40;62.10;;;;;;6163055;23;20017;-79
2022/01/30 12:18:08;;;;;;;;;;;12.90;61.50;;;;;;6163289;23;20052;-79
2022/01/30 12:21:04;;;;;;;46.42;11.20;;;13.50;61.80;;;;;;6162916;23;19963;-81
2022/01/30 12:23:35;;;;;;;45.47;12.57;;;14.40;59.40;;;;;;6138397;23;20021;-78
2022/01/30 12:26:06;;;;;;;41.80;10.65;;;15.00;58.20;;;;;;6184912;23;20092;-78
2022/01/30 12:28:44;;;;;;;46.25;8.88;;;15.50;57.00;;;;;;6137472;23;20438;-80
2022/01/30 12:31:35;;;;;;;39.97;9.07;;;15.60;56.40;;;;;;6137287;23;20021;-77
2022/01/30 12:34:05;;;;;;;45.42;9.60;;;15.30;54.90;;;;;;6163045;23;20040;-76
2022/01/30 12:36:35;;;;;;;41.17;10.43;;;14.80;56.50;;;;;;6188538;23;20096;-77
2022/01/30 12:39:03;;;;;;;42.60;10.60;;;14.30;56.70;;;;;;6138357;23;20021;-78
2022/01/30 12:41:32;;;;;;;39.15;9.80;;;13.90;57.50;;;;;;6114712;23;20031;-81
2022/01/30 12:43:59;;;;;;;41.15;9.35;;;13.90;57.50;;;;;;6140141;23;20418;-78
2022/01/30 12:46:27;;;;;;;53.35;10.57;;;14.00;56.80;;;;;;6164216;23;20021;-78
2022/01/30 12:49:07;;;;;;;42.08;9.63;;;14.20;56.60;;;;;;6115039;23;20337;-76
2022/01/30 12:51:34;;;;;;;40.45;9.18;;;14.50;55.90;;;;;;6164194;23;20436;-75
2022/01/30 12:54:00;;;;;;;37.88;8.60;;;14.90;55.90;;;;;;6160136;23;20021;-75
2022/01/30 12:56:26;;;;;;;43.20;9.00;;;15.20;55.00;;;;;;6136613;23;20071;-75
2022/01/30 12:58:56;;;;;;;41.58;10.50;;;15.60;54.10;;;;;;6111603;23;20304;-74
2022/01/30 13:01:27;;;;;;;28.95;7.45;;;15.80;53.40;;;;;;6138066;23;20052;-81
2022/01/30 13:04:08;;;;;;;47.65;9.60;;;16.10;55.20;;;;;;6114606;23;20570;-76
2022/01/30 13:06:39;;;;;;;49.00;9.87;;;16.60;52.70;;;;;;6138933;23;20021;-78
2022/01/30 13:09:05;;;;;;;43.95;9.23;;;16.70;52.70;;;;;;6140638;23;20103;-76
2022/01/30 13:11:31;;;;;;;37.95;9.98;;;16.80;52.20;;;;;;6164984;23;20017;-77
2022/01/30 13:13:58;;;;;;;41.28;10.57;;;16.90;52.00;;;;;;6190029;23;20137;-76
2022/01/30 13:16:35;;;;;;;41.55;10.23;;;16.90;51.60;;;;;;6139143;23;20033;-78
2022/01/30 13:19:04;;;;;;;38.38;11.10;;;16.70;50.90;;;;;;6140359;23;20045;-76
2022/01/30 13:21:30;;;;;;;42.78;9.75;;;16.70;51.50;;;;;;6139219;23;20052;-76
2022/01/30 13:23:56;;;;;;;40.00;9.93;;;16.80;51.50;;;;;;6163797;23;20020;-78
2022/01/30 13:26:32;;;;;;;38.85;9.35;;;16.80;51.40;;;;;;6163483;23;20017;-77
2022/01/30 13:28:59;;;;;;;39.35;10.75;;;16.80;50.50;;;;;;6163321;23;20035;-77
2022/01/30 13:31:25;;;;;;;48.10;10.73;;;16.60;50.70;;;;;;6139000;23;20108;-77
2022/01/30 13:34:11;;;;;;;38.88;8.77;;;16.50;50.20;;;;;;6135812;23;20045;-77
2022/01/30 13:36:37;;;;;;;41.72;10.20;;;16.20;48.40;;;;;;6137852;23;20072;-79
2022/01/30 13:39:07;;;;;;;39.80;10.00;;;16.10;50.80;;;;;;6161905;23;20024;-78